sensor_id;sensor_type;location;lat;lon;timestamp;temperature;humidity
69084;SHT31;56185;48.526;9.044;2022-12-18T00:01:03;-7.55;79.35
69084;SHT31;56185;48.526;9.044;2022-12-18T00:03:29;-7.52;78.40
69084;SHT31;56185;48.526;9.044;2022-12-18T00:05:54;-7.72;79.29
69084;SHT31;56185;48.526;9.044;2022-12-18T00:08:19;-7.73;78.67
69084;SHT31;56185;48.526;9.044;2022-12-18T00:10:45;-7.71;79.55
69084;SHT31;56185;48.526;9.044;2022-12-18T00:13:11;-7.89;79.55
69084;SHT31;56185;48.526;9.044;2022-12-18T00:15:38;-7.73;79.43
69084;SHT31;56185;48.526;9.044;2022-12-18T00:18:04;-7.93;79.42
69084;SHT31;56185;48.526;9.044;2022-12-18T00:20:30;-7.90;79.77
69084;SHT31;56185;48.526;9.044;2022-12-18T00:22:55;-7.93;80.22
69084;SHT31;56185;48.526;9.044;2022-12-18T00:25:21;-7.87;79.67
69084;SHT31;56185;48.526;9.044;2022-12-18T00:27:47;-8.04;80.10
69084;SHT31;56185;48.526;9.044;2022-12-18T00:30:13;-7.82;79.19
69084;SHT31;56185;48.526;9.044;2022-12-18T00:32:38;-7.89;79.00
69084;SHT31;56185;48.526;9.044;2022-12-18T00:35:05;-7.86;79.63
69084;SHT31;56185;48.526;9.044;2022-12-18T00:37:30;-7.85;78.43
69084;SHT31;56185;48.526;9.044;2022-12-18T00:39:55;-8.04;78.26
69084;SHT31;56185;48.526;9.044;2022-12-18T00:42:21;-8.20;78.81
69084;SHT31;56185;48.526;9.044;2022-12-18T00:44:46;-8.27;79.44
69084;SHT31;56185;48.526;9.044;2022-12-18T00:47:11;-8.33;78.31
69084;SHT31;56185;48.526;9.044;2022-12-18T00:49:36;-8.24;79.06
69084;SHT31;56185;48.526;9.044;2022-12-18T00:52:02;-8.17;79.56
69084;SHT31;56185;48.526;9.044;2022-12-18T00:54:27;-8.10;78.60
69084;SHT31;56185;48.526;9.044;2022-12-18T00:56:52;-8.10;78.67
69084;SHT31;56185;48.526;9.044;2022-12-18T00:59:18;-8.21;79.22
69084;SHT31;56185;48.526;9.044;2022-12-18T01:01:43;-8.20;77.17
69084;SHT31;56185;48.526;9.044;2022-12-18T01:04:08;-8.20;77.76
69084;SHT31;56185;48.526;9.044;2022-12-18T01:06:34;-8.23;78.81
69084;SHT31;56185;48.526;9.044;2022-12-18T01:08:59;-8.20;78.23
69084;SHT31;56185;48.526;9.044;2022-12-18T01:11:25;-8.18;77.29
69084;SHT31;56185;48.526;9.044;2022-12-18T01:13:52;-8.38;77.42
69084;SHT31;56185;48.526;9.044;2022-12-18T01:16:17;-8.27;77.51
69084;SHT31;56185;48.526;9.044;2022-12-18T01:18:43;-8.33;77.21
69084;SHT31;56185;48.526;9.044;2022-12-18T01:21:10;-8.37;77.75
69084;SHT31;56185;48.526;9.044;2022-12-18T01:23:36;-8.28;77.03
69084;SHT31;56185;48.526;9.044;2022-12-18T01:26:09;-8.62;77.95
69084;SHT31;56185;48.526;9.044;2022-12-18T01:28:35;-8.48;78.69
69084;SHT31;56185;48.526;9.044;2022-12-18T01:31:10;-8.48;77.48
69084;SHT31;56185;48.526;9.044;2022-12-18T01:33:36;-8.51;77.25
69084;SHT31;56185;48.526;9.044;2022-12-18T01:36:01;-8.55;78.23
69084;SHT31;56185;48.526;9.044;2022-12-18T01:38:28;-8.61;77.38
69084;SHT31;56185;48.526;9.044;2022-12-18T01:41:00;-8.69;77.83
69084;SHT31;56185;48.526;9.044;2022-12-18T01:46:10;-8.71;76.71
69084;SHT31;56185;48.526;9.044;2022-12-18T01:48:36;-8.86;78.06
69084;SHT31;56185;48.526;9.044;2022-12-18T01:51:02;-8.89;78.19
69084;SHT31;56185;48.526;9.044;2022-12-18T01:53:27;-8.99;78.78
69084;SHT31;56185;48.526;9.044;2022-12-18T01:55:55;-9.06;78.26
69084;SHT31;56185;48.526;9.044;2022-12-18T01:58:35;-8.91;78.68
69084;SHT31;56185;48.526;9.044;2022-12-18T02:01:02;-8.73;77.95
69084;SHT31;56185;48.526;9.044;2022-12-18T02:03:27;-8.83;78.46
69084;SHT31;56185;48.526;9.044;2022-12-18T02:11:42;-8.97;78.00
69084;SHT31;56185;48.526;9.044;2022-12-18T02:17:00;-9.04;79.32
69084;SHT31;56185;48.526;9.044;2022-12-18T02:21:58;-8.85;77.95
69084;SHT31;56185;48.526;9.044;2022-12-18T02:24:35;-8.85;78.25
69084;SHT31;56185;48.526;9.044;2022-12-18T02:27:05;-8.82;78.03
69084;SHT31;56185;48.526;9.044;2022-12-18T02:29:37;-8.62;76.81
69084;SHT31;56185;48.526;9.044;2022-12-18T02:32:08;-8.78;78.12
69084;SHT31;56185;48.526;9.044;2022-12-18T02:34:38;-8.76;79.10
69084;SHT31;56185;48.526;9.044;2022-12-18T02:37:06;-8.71;78.34
69084;SHT31;56185;48.526;9.044;2022-12-18T02:39:34;-8.75;79.00
69084;SHT31;56185;48.526;9.044;2022-12-18T02:42:00;-8.73;77.81
69084;SHT31;56185;48.526;9.044;2022-12-18T02:44:26;-8.68;79.23
69084;SHT31;56185;48.526;9.044;2022-12-18T02:46:52;-8.62;78.34
69084;SHT31;56185;48.526;9.044;2022-12-18T02:52:05;-8.72;78.64
69084;SHT31;56185;48.526;9.044;2022-12-18T02:54:57;-8.68;77.46
69084;SHT31;56185;48.526;9.044;2022-12-18T02:57:44;-8.66;77.39
69084;SHT31;56185;48.526;9.044;2022-12-18T03:00:16;-8.63;78.41
69084;SHT31;56185;48.526;9.044;2022-12-18T03:05:27;-8.59;78.29
69084;SHT31;56185;48.526;9.044;2022-12-18T03:08:03;-8.78;77.06
69084;SHT31;56185;48.526;9.044;2022-12-18T03:10:32;-8.59;77.00
69084;SHT31;56185;48.526;9.044;2022-12-18T03:13:04;-8.73;77.53
69084;SHT31;56185;48.526;9.044;2022-12-18T03:15:35;-8.63;77.17
69084;SHT31;56185;48.526;9.044;2022-12-18T03:18:14;-8.46;77.12
69084;SHT31;56185;48.526;9.044;2022-12-18T03:20:42;-8.62;77.17
69084;SHT31;56185;48.526;9.044;2022-12-18T03:23:15;-8.51;76.34
69084;SHT31;56185;48.526;9.044;2022-12-18T03:25:42;-8.81;77.41
69084;SHT31;56185;48.526;9.044;2022-12-18T03:28:12;-8.83;77.80
69084;SHT31;56185;48.526;9.044;2022-12-18T03:30:40;-8.66;76.73
69084;SHT31;56185;48.526;9.044;2022-12-18T03:33:10;-8.59;77.03
69084;SHT31;56185;48.526;9.044;2022-12-18T03:35:41;-8.68;77.43
69084;SHT31;56185;48.526;9.044;2022-12-18T03:38:08;-8.61;77.17
69084;SHT31;56185;48.526;9.044;2022-12-18T03:46:21;-8.79;79.07
69084;SHT31;56185;48.526;9.044;2022-12-18T03:48:56;-8.82;79.07
69084;SHT31;56185;48.526;9.044;2022-12-18T03:51:43;-8.72;77.72
69084;SHT31;56185;48.526;9.044;2022-12-18T03:54:13;-8.75;78.53
69084;SHT31;56185;48.526;9.044;2022-12-18T03:56:43;-8.79;79.17
69084;SHT31;56185;48.526;9.044;2022-12-18T03:59:10;-8.88;79.57
69084;SHT31;56185;48.526;9.044;2022-12-18T04:01:42;-8.83;78.71
69084;SHT31;56185;48.526;9.044;2022-12-18T04:04:12;-8.78;78.49
69084;SHT31;56185;48.526;9.044;2022-12-18T04:06:38;-8.59;78.45
69084;SHT31;56185;48.526;9.044;2022-12-18T04:09:04;-8.68;79.22
69084;SHT31;56185;48.526;9.044;2022-12-18T04:11:30;-8.86;79.57
69084;SHT31;56185;48.526;9.044;2022-12-18T04:13:56;-8.78;79.91
69084;SHT31;56185;48.526;9.044;2022-12-18T04:16:21;-8.69;79.56
69084;SHT31;56185;48.526;9.044;2022-12-18T04:18:46;-8.73;79.10
69084;SHT31;56185;48.526;9.044;2022-12-18T04:21:11;-8.86;79.72
69084;SHT31;56185;48.526;9.044;2022-12-18T04:23:37;-8.81;80.03
69084;SHT31;56185;48.526;9.044;2022-12-18T04:26:02;-8.83;80.54
69084;SHT31;56185;48.526;9.044;2022-12-18T04:28:28;-8.55;80.40
69084;SHT31;56185;48.526;9.044;2022-12-18T04:30:53;-8.62;80.86
69084;SHT31;56185;48.526;9.044;2022-12-18T04:33:18;-8.62;80.86
69084;SHT31;56185;48.526;9.044;2022-12-18T04:35:43;-8.82;81.08
69084;SHT31;56185;48.526;9.044;2022-12-18T04:38:09;-8.85;80.66
69084;SHT31;56185;48.526;9.044;2022-12-18T04:40:35;-8.85;81.39
69084;SHT31;56185;48.526;9.044;2022-12-18T04:43:00;-8.78;80.66
69084;SHT31;56185;48.526;9.044;2022-12-18T04:45:26;-8.62;80.53
69084;SHT31;56185;48.526;9.044;2022-12-18T04:47:51;-8.51;80.68
69084;SHT31;56185;48.526;9.044;2022-12-18T04:50:16;-8.54;81.25
69084;SHT31;56185;48.526;9.044;2022-12-18T04:52:41;-8.92;82.11
69084;SHT31;56185;48.526;9.044;2022-12-18T04:55:07;-8.76;82.64
69084;SHT31;56185;48.526;9.044;2022-12-18T04:57:32;-8.51;82.01
69084;SHT31;56185;48.526;9.044;2022-12-18T04:59:57;-8.61;81.09
69084;SHT31;56185;48.526;9.044;2022-12-18T05:02:23;-8.63;81.09
69084;SHT31;56185;48.526;9.044;2022-12-18T05:04:48;-8.62;80.47
69084;SHT31;56185;48.526;9.044;2022-12-18T05:07:13;-8.69;80.91
69084;SHT31;56185;48.526;9.044;2022-12-18T05:09:38;-8.65;80.98
69084;SHT31;56185;48.526;9.044;2022-12-18T05:12:04;-8.78;80.63
69084;SHT31;56185;48.526;9.044;2022-12-18T05:14:29;-8.75;80.59
69084;SHT31;56185;48.526;9.044;2022-12-18T05:16:54;-8.86;81.22
69084;SHT31;56185;48.526;9.044;2022-12-18T05:19:20;-8.89;81.97
69084;SHT31;56185;48.526;9.044;2022-12-18T05:21:45;-9.02;81.69
69084;SHT31;56185;48.526;9.044;2022-12-18T05:24:10;-8.97;82.27
69084;SHT31;56185;48.526;9.044;2022-12-18T05:26:35;-8.88;81.68
69084;SHT31;56185;48.526;9.044;2022-12-18T05:29:01;-8.96;81.81
69084;SHT31;56185;48.526;9.044;2022-12-18T05:31:26;-8.78;82.06
69084;SHT31;56185;48.526;9.044;2022-12-18T05:33:51;-8.83;81.67
69084;SHT31;56185;48.526;9.044;2022-12-18T05:36:17;-9.00;81.45
69084;SHT31;56185;48.526;9.044;2022-12-18T05:38:42;-8.99;81.54
69084;SHT31;56185;48.526;9.044;2022-12-18T05:41:08;-9.04;81.43
69084;SHT31;56185;48.526;9.044;2022-12-18T05:43:35;-9.31;81.29
69084;SHT31;56185;48.526;9.044;2022-12-18T05:46:08;-9.22;82.39
69084;SHT31;56185;48.526;9.044;2022-12-18T05:48:34;-9.20;81.24
69084;SHT31;56185;48.526;9.044;2022-12-18T05:51:05;-9.04;81.14
69084;SHT31;56185;48.526;9.044;2022-12-18T05:53:30;-9.13;80.58
69084;SHT31;56185;48.526;9.044;2022-12-18T05:55:59;-9.02;80.72
69084;SHT31;56185;48.526;9.044;2022-12-18T05:58:25;-8.88;79.28
69084;SHT31;56185;48.526;9.044;2022-12-18T06:00:50;-8.95;80.57
69084;SHT31;56185;48.526;9.044;2022-12-18T06:03:15;-9.03;79.53
69084;SHT31;56185;48.526;9.044;2022-12-18T06:05:43;-9.19;80.52
69084;SHT31;56185;48.526;9.044;2022-12-18T06:08:10;-9.16;81.40
69084;SHT31;56185;48.526;9.044;2022-12-18T06:10:36;-9.12;80.88
69084;SHT31;56185;48.526;9.044;2022-12-18T06:13:01;-9.09;81.24
69084;SHT31;56185;48.526;9.044;2022-12-18T06:15:27;-9.03;81.24
69084;SHT31;56185;48.526;9.044;2022-12-18T06:17:52;-9.03;81.41
69084;SHT31;56185;48.526;9.044;2022-12-18T06:20:18;-8.93;81.27
69084;SHT31;56185;48.526;9.044;2022-12-18T06:22:43;-8.49;79.39
69084;SHT31;56185;48.526;9.044;2022-12-18T06:25:08;-8.69;79.67
69084;SHT31;56185;48.526;9.044;2022-12-18T06:27:34;-8.59;79.97
69084;SHT31;56185;48.526;9.044;2022-12-18T06:30:00;-8.79;79.82
69084;SHT31;56185;48.526;9.044;2022-12-18T06:32:26;-8.72;80.36
69084;SHT31;56185;48.526;9.044;2022-12-18T06:34:52;-8.79;79.56
69084;SHT31;56185;48.526;9.044;2022-12-18T06:37:17;-8.91;80.22
69084;SHT31;56185;48.526;9.044;2022-12-18T06:39:42;-9.07;80.35
69084;SHT31;56185;48.526;9.044;2022-12-18T06:42:07;-8.99;81.63
69084;SHT31;56185;48.526;9.044;2022-12-18T06:44:33;-9.04;80.76
69084;SHT31;56185;48.526;9.044;2022-12-18T06:46:58;-8.76;78.70
69084;SHT31;56185;48.526;9.044;2022-12-18T06:49:23;-8.85;80.13
69084;SHT31;56185;48.526;9.044;2022-12-18T06:51:48;-8.96;79.20
69084;SHT31;56185;48.526;9.044;2022-12-18T06:54:14;-9.19;79.76
69084;SHT31;56185;48.526;9.044;2022-12-18T06:56:39;-9.22;80.63
69084;SHT31;56185;48.526;9.044;2022-12-18T06:59:04;-9.12;80.28
69084;SHT31;56185;48.526;9.044;2022-12-18T07:01:29;-9.22;81.13
69084;SHT31;56185;48.526;9.044;2022-12-18T07:03:56;-9.12;80.61
69084;SHT31;56185;48.526;9.044;2022-12-18T07:06:24;-8.91;80.49
69084;SHT31;56185;48.526;9.044;2022-12-18T07:08:50;-8.99;81.08
69084;SHT31;56185;48.526;9.044;2022-12-18T07:11:16;-9.09;81.55
69084;SHT31;56185;48.526;9.044;2022-12-18T07:13:42;-9.10;82.13
69084;SHT31;56185;48.526;9.044;2022-12-18T07:16:10;-9.12;82.32
69084;SHT31;56185;48.526;9.044;2022-12-18T07:18:35;-9.06;81.84
69084;SHT31;56185;48.526;9.044;2022-12-18T07:21:06;-9.03;81.46
69084;SHT31;56185;48.526;9.044;2022-12-18T07:23:32;-8.88;81.31
69084;SHT31;56185;48.526;9.044;2022-12-18T07:26:07;-8.97;81.70
69084;SHT31;56185;48.526;9.044;2022-12-18T07:28:33;-9.14;82.13
69084;SHT31;56185;48.526;9.044;2022-12-18T07:31:07;-8.95;81.12
69084;SHT31;56185;48.526;9.044;2022-12-18T07:33:33;-8.91;80.29
69084;SHT31;56185;48.526;9.044;2022-12-18T07:36:03;-9.00;80.60
69084;SHT31;56185;48.526;9.044;2022-12-18T07:38:30;-9.12;80.98
69084;SHT31;56185;48.526;9.044;2022-12-18T07:41:03;-8.95;81.28
69084;SHT31;56185;48.526;9.044;2022-12-18T07:43:28;-9.02;81.00
69084;SHT31;56185;48.526;9.044;2022-12-18T07:45:54;-9.03;80.70
69084;SHT31;56185;48.526;9.044;2022-12-18T07:48:19;-9.02;80.74
69084;SHT31;56185;48.526;9.044;2022-12-18T07:50:45;-9.03;80.25
69084;SHT31;56185;48.526;9.044;2022-12-18T07:53:10;-9.10;80.19
69084;SHT31;56185;48.526;9.044;2022-12-18T07:55:35;-9.03;80.28
69084;SHT31;56185;48.526;9.044;2022-12-18T07:58:02;-8.99;80.53
69084;SHT31;56185;48.526;9.044;2022-12-18T08:00:27;-9.10;79.17
69084;SHT31;56185;48.526;9.044;2022-12-18T08:02:53;-9.03;79.57
69084;SHT31;56185;48.526;9.044;2022-12-18T08:05:18;-9.04;79.17
69084;SHT31;56185;48.526;9.044;2022-12-18T08:07:44;-8.82;78.37
69084;SHT31;56185;48.526;9.044;2022-12-18T08:10:09;-9.04;78.27
69084;SHT31;56185;48.526;9.044;2022-12-18T08:12:34;-9.00;78.35
69084;SHT31;56185;48.526;9.044;2022-12-18T08:15:00;-9.23;79.13
69084;SHT31;56185;48.526;9.044;2022-12-18T08:17:25;-9.26;78.58
69084;SHT31;56185;48.526;9.044;2022-12-18T08:19:50;-9.13;78.13
69084;SHT31;56185;48.526;9.044;2022-12-18T08:22:15;-9.09;78.08
69084;SHT31;56185;48.526;9.044;2022-12-18T08:24:41;-9.09;77.88
69084;SHT31;56185;48.526;9.044;2022-12-18T08:27:06;-9.23;78.45
69084;SHT31;56185;48.526;9.044;2022-12-18T08:29:31;-9.10;78.50
69084;SHT31;56185;48.526;9.044;2022-12-18T08:31:57;-9.37;78.61
69084;SHT31;56185;48.526;9.044;2022-12-18T08:34:22;-9.23;78.93
69084;SHT31;56185;48.526;9.044;2022-12-18T08:36:47;-9.30;79.09
69084;SHT31;56185;48.526;9.044;2022-12-18T08:39:13;-8.97;77.77
69084;SHT31;56185;48.526;9.044;2022-12-18T08:41:38;-8.85;77.11
69084;SHT31;56185;48.526;9.044;2022-12-18T08:44:03;-8.92;76.67
69084;SHT31;56185;48.526;9.044;2022-12-18T08:46:43;-8.73;75.38
69084;SHT31;56185;48.526;9.044;2022-12-18T08:49:09;-8.78;76.00
69084;SHT31;56185;48.526;9.044;2022-12-18T08:51:35;-8.68;76.33
69084;SHT31;56185;48.526;9.044;2022-12-18T08:54:00;-8.61;76.39
69084;SHT31;56185;48.526;9.044;2022-12-18T08:56:26;-8.68;75.22
69084;SHT31;56185;48.526;9.044;2022-12-18T08:58:53;-8.69;76.17
69084;SHT31;56185;48.526;9.044;2022-12-18T09:01:19;-8.71;75.72
69084;SHT31;56185;48.526;9.044;2022-12-18T09:03:50;-8.41;75.72
69084;SHT31;56185;48.526;9.044;2022-12-18T09:06:17;-8.33;75.76
69084;SHT31;56185;48.526;9.044;2022-12-18T09:08:44;-8.24;75.07
69084;SHT31;56185;48.526;9.044;2022-12-18T09:11:24;-8.14;75.49
69084;SHT31;56185;48.526;9.044;2022-12-18T09:13:50;-8.03;75.72
69084;SHT31;56185;48.526;9.044;2022-12-18T09:16:16;-7.89;74.84
69084;SHT31;56185;48.526;9.044;2022-12-18T09:18:41;-7.89;74.98
69084;SHT31;56185;48.526;9.044;2022-12-18T09:21:12;-7.83;75.74
69084;SHT31;56185;48.526;9.044;2022-12-18T09:23:38;-7.69;74.52
69084;SHT31;56185;48.526;9.044;2022-12-18T09:26:04;-7.60;74.17
69084;SHT31;56185;48.526;9.044;2022-12-18T09:28:29;-7.65;73.74
69084;SHT31;56185;48.526;9.044;2022-12-18T09:30:54;-7.42;75.18
69084;SHT31;56185;48.526;9.044;2022-12-18T09:33:20;-7.56;73.13
69084;SHT31;56185;48.526;9.044;2022-12-18T09:35:46;-7.55;73.62
69084;SHT31;56185;48.526;9.044;2022-12-18T09:38:13;-7.62;74.65
69084;SHT31;56185;48.526;9.044;2022-12-18T09:40:49;-7.56;74.25
69084;SHT31;56185;48.526;9.044;2022-12-18T09:43:18;-7.45;74.03
69084;SHT31;56185;48.526;9.044;2022-12-18T09:45:47;-7.53;73.55
69084;SHT31;56185;48.526;9.044;2022-12-18T09:48:23;-7.38;73.76
69084;SHT31;56185;48.526;9.044;2022-12-18T09:50:50;-7.27;74.15
69084;SHT31;56185;48.526;9.044;2022-12-18T09:53:19;-7.04;73.84
69084;SHT31;56185;48.526;9.044;2022-12-18T09:55:47;-6.86;73.79
69084;SHT31;56185;48.526;9.044;2022-12-18T09:58:26;-6.89;73.31
69084;SHT31;56185;48.526;9.044;2022-12-18T10:00:53;-6.82;73.43
69084;SHT31;56185;48.526;9.044;2022-12-18T10:03:19;-6.75;73.96
69084;SHT31;56185;48.526;9.044;2022-12-18T10:13:53;-6.55;74.07
69084;SHT31;56185;48.526;9.044;2022-12-18T10:22:30;-6.03;72.66
69084;SHT31;56185;48.526;9.044;2022-12-18T10:25:05;-5.87;72.79
69084;SHT31;56185;48.526;9.044;2022-12-18T10:27:32;-5.86;71.13
69084;SHT31;56185;48.526;9.044;2022-12-18T10:29:58;-5.70;71.56
69084;SHT31;56185;48.526;9.044;2022-12-18T10:32:29;-5.59;70.79
69084;SHT31;56185;48.526;9.044;2022-12-18T10:34:56;-5.66;70.73
69084;SHT31;56185;48.526;9.044;2022-12-18T10:37:24;-5.59;71.47
69084;SHT31;56185;48.526;9.044;2022-12-18T10:42:35;-5.89;71.61
69084;SHT31;56185;48.526;9.044;2022-12-18T10:45:03;-5.93;71.54
69084;SHT31;56185;48.526;9.044;2022-12-18T10:47:30;-5.87;72.81
69084;SHT31;56185;48.526;9.044;2022-12-18T10:49:56;-5.97;73.22
69084;SHT31;56185;48.526;9.044;2022-12-18T10:52:23;-5.98;74.12
69084;SHT31;56185;48.526;9.044;2022-12-18T10:54:59;-5.97;73.81
69084;SHT31;56185;48.526;9.044;2022-12-18T10:57:34;-5.86;74.19
69084;SHT31;56185;48.526;9.044;2022-12-18T11:00:20;-5.89;74.30
69084;SHT31;56185;48.526;9.044;2022-12-18T11:02:45;-5.73;74.55
69084;SHT31;56185;48.526;9.044;2022-12-18T11:07:50;-5.43;75.19
69084;SHT31;56185;48.526;9.044;2022-12-18T11:10:17;-5.35;74.11
69084;SHT31;56185;48.526;9.044;2022-12-18T11:12:43;-5.26;73.38
69084;SHT31;56185;48.526;9.044;2022-12-18T11:15:35;-5.05;74.25
69084;SHT31;56185;48.526;9.044;2022-12-18T11:18:00;-4.94;73.80
69084;SHT31;56185;48.526;9.044;2022-12-18T11:20:35;-4.90;73.79
69084;SHT31;56185;48.526;9.044;2022-12-18T11:23:04;-4.77;74.15
69084;SHT31;56185;48.526;9.044;2022-12-18T11:25:30;-4.80;74.21
69084;SHT31;56185;48.526;9.044;2022-12-18T11:27:58;-4.71;74.76
69084;SHT31;56185;48.526;9.044;2022-12-18T11:30:28;-4.71;75.72
69084;SHT31;56185;48.526;9.044;2022-12-18T11:33:15;-4.63;74.45
69084;SHT31;56185;48.526;9.044;2022-12-18T11:35:48;-4.63;75.12
69084;SHT31;56185;48.526;9.044;2022-12-18T11:38:28;-4.63;75.04
69084;SHT31;56185;48.526;9.044;2022-12-18T11:41:14;-4.54;75.41
69084;SHT31;56185;48.526;9.044;2022-12-18T11:43:52;-4.45;75.09
69084;SHT31;56185;48.526;9.044;2022-12-18T11:46:24;-4.36;74.54
69084;SHT31;56185;48.526;9.044;2022-12-18T11:48:59;-4.30;74.89
69084;SHT31;56185;48.526;9.044;2022-12-18T11:51:33;-4.30;74.48
69084;SHT31;56185;48.526;9.044;2022-12-18T11:54:01;-4.18;74.67
69084;SHT31;56185;48.526;9.044;2022-12-18T11:56:36;-4.06;76.56
69084;SHT31;56185;48.526;9.044;2022-12-18T12:01:51;-4.02;74.92
69084;SHT31;56185;48.526;9.044;2022-12-18T12:04:30;-3.95;74.86
69084;SHT31;56185;48.526;9.044;2022-12-18T12:07:09;-3.90;76.01
69084;SHT31;56185;48.526;9.044;2022-12-18T12:12:42;-3.87;76.13
69084;SHT31;56185;48.526;9.044;2022-12-18T12:15:28;-3.87;75.37
69084;SHT31;56185;48.526;9.044;2022-12-18T12:18:13;-3.82;76.09
69084;SHT31;56185;48.526;9.044;2022-12-18T12:23:30;-3.73;76.54
69084;SHT31;56185;48.526;9.044;2022-12-18T12:26:04;-3.70;77.17
69084;SHT31;56185;48.526;9.044;2022-12-18T12:28:57;-3.68;76.98
69084;SHT31;56185;48.526;9.044;2022-12-18T12:34:01;-3.66;77.16
69084;SHT31;56185;48.526;9.044;2022-12-18T12:39:14;-3.60;76.50
69084;SHT31;56185;48.526;9.044;2022-12-18T12:41:42;-3.49;75.68
69084;SHT31;56185;48.526;9.044;2022-12-18T12:44:14;-3.57;76.12
69084;SHT31;56185;48.526;9.044;2022-12-18T13:04:49;-3.61;75.39
69084;SHT31;56185;48.526;9.044;2022-12-18T13:17:47;-3.67;77.50
69084;SHT31;56185;48.526;9.044;2022-12-18T13:20:14;-3.73;78.30
69084;SHT31;56185;48.526;9.044;2022-12-18T13:22:48;-3.68;76.47
69084;SHT31;56185;48.526;9.044;2022-12-18T13:25:56;-3.68;77.55
69084;SHT31;56185;48.526;9.044;2022-12-18T13:31:07;-3.66;76.70
69084;SHT31;56185;48.526;9.044;2022-12-18T13:33:46;-3.59;76.82
69084;SHT31;56185;48.526;9.044;2022-12-18T13:36:29;-3.56;76.64
69084;SHT31;56185;48.526;9.044;2022-12-18T13:41:40;-3.43;78.01
69084;SHT31;56185;48.526;9.044;2022-12-18T13:44:29;-3.35;78.10
69084;SHT31;56185;48.526;9.044;2022-12-18T13:46:56;-3.40;77.88
69084;SHT31;56185;48.526;9.044;2022-12-18T13:49:25;-3.36;78.11
69084;SHT31;56185;48.526;9.044;2022-12-18T13:51:55;-3.36;78.78
69084;SHT31;56185;48.526;9.044;2022-12-18T13:54:34;-3.33;77.69
69084;SHT31;56185;48.526;9.044;2022-12-18T13:57:01;-3.24;77.21
69084;SHT31;56185;48.526;9.044;2022-12-18T13:59:37;-3.22;78.04
69084;SHT31;56185;48.526;9.044;2022-12-18T14:02:15;-3.26;77.41
69084;SHT31;56185;48.526;9.044;2022-12-18T14:04:44;-3.23;78.09
69084;SHT31;56185;48.526;9.044;2022-12-18T14:07:18;-3.26;77.61
69084;SHT31;56185;48.526;9.044;2022-12-18T14:09:50;-3.29;78.48
69084;SHT31;56185;48.526;9.044;2022-12-18T14:12:22;-3.23;77.92
69084;SHT31;56185;48.526;9.044;2022-12-18T14:14:50;-3.30;78.21
69084;SHT31;56185;48.526;9.044;2022-12-18T14:17:16;-3.33;77.90
69084;SHT31;56185;48.526;9.044;2022-12-18T14:19:47;-3.30;78.90
69084;SHT31;56185;48.526;9.044;2022-12-18T14:22:23;-3.26;78.10
69084;SHT31;56185;48.526;9.044;2022-12-18T14:25:06;-3.20;77.80
69084;SHT31;56185;48.526;9.044;2022-12-18T14:27:37;-3.24;78.02
69084;SHT31;56185;48.526;9.044;2022-12-18T14:30:38;-3.26;78.48
69084;SHT31;56185;48.526;9.044;2022-12-18T14:35:51;-3.26;78.59
69084;SHT31;56185;48.526;9.044;2022-12-18T14:40:45;-3.29;79.37
69084;SHT31;56185;48.526;9.044;2022-12-18T14:43:11;-3.32;79.45
69084;SHT31;56185;48.526;9.044;2022-12-18T14:45:41;-3.30;79.48
69084;SHT31;56185;48.526;9.044;2022-12-18T14:48:08;-3.32;79.85
69084;SHT31;56185;48.526;9.044;2022-12-18T14:50:37;-3.32;79.59
69084;SHT31;56185;48.526;9.044;2022-12-18T14:53:02;-3.33;79.00
69084;SHT31;56185;48.526;9.044;2022-12-18T14:55:27;-3.33;79.59
69084;SHT31;56185;48.526;9.044;2022-12-18T14:57:54;-3.36;79.38
69084;SHT31;56185;48.526;9.044;2022-12-18T15:00:22;-3.42;80.04
69084;SHT31;56185;48.526;9.044;2022-12-18T15:02:57;-3.40;80.98
69084;SHT31;56185;48.526;9.044;2022-12-18T15:05:28;-3.44;80.54
69084;SHT31;56185;48.526;9.044;2022-12-18T15:07:55;-3.49;81.00
69084;SHT31;56185;48.526;9.044;2022-12-18T15:10:23;-3.53;81.35
69084;SHT31;56185;48.526;9.044;2022-12-18T15:18:01;-3.57;81.18
69084;SHT31;56185;48.526;9.044;2022-12-18T15:20:27;-3.49;81.00
69084;SHT31;56185;48.526;9.044;2022-12-18T15:22:53;-3.66;80.86
69084;SHT31;56185;48.526;9.044;2022-12-18T15:25:49;-3.63;81.01
69084;SHT31;56185;48.526;9.044;2022-12-18T15:28:23;-3.68;81.26
69084;SHT31;56185;48.526;9.044;2022-12-18T15:33:36;-3.74;81.09
69084;SHT31;56185;48.526;9.044;2022-12-18T15:36:04;-3.68;81.27
69084;SHT31;56185;48.526;9.044;2022-12-18T15:38:30;-3.80;81.43
69084;SHT31;56185;48.526;9.044;2022-12-18T15:40:55;-3.85;81.39
69084;SHT31;56185;48.526;9.044;2022-12-18T15:43:22;-3.87;81.51
69084;SHT31;56185;48.526;9.044;2022-12-18T15:45:48;-3.88;80.40
69084;SHT31;56185;48.526;9.044;2022-12-18T15:48:22;-3.84;81.14
69084;SHT31;56185;48.526;9.044;2022-12-18T15:50:52;-3.99;81.12
69084;SHT31;56185;48.526;9.044;2022-12-18T15:53:18;-4.01;81.16
69084;SHT31;56185;48.526;9.044;2022-12-18T15:55:44;-4.01;80.92
69084;SHT31;56185;48.526;9.044;2022-12-18T15:58:12;-4.12;81.25
69084;SHT31;56185;48.526;9.044;2022-12-18T16:00:38;-4.03;80.84
69084;SHT31;56185;48.526;9.044;2022-12-18T16:03:05;-3.98;80.93
69084;SHT31;56185;48.526;9.044;2022-12-18T16:05:30;-4.11;80.99
69084;SHT31;56185;48.526;9.044;2022-12-18T16:07:56;-4.22;80.82
69084;SHT31;56185;48.526;9.044;2022-12-18T16:10:21;-4.18;80.23
69084;SHT31;56185;48.526;9.044;2022-12-18T16:12:47;-4.34;80.63
69084;SHT31;56185;48.526;9.044;2022-12-18T16:15:14;-4.39;80.85
69084;SHT31;56185;48.526;9.044;2022-12-18T16:17:40;-4.36;80.77
69084;SHT31;56185;48.526;9.044;2022-12-18T16:20:16;-4.43;80.76
69084;SHT31;56185;48.526;9.044;2022-12-18T16:22:43;-4.26;80.66
69084;SHT31;56185;48.526;9.044;2022-12-18T16:25:24;-4.41;80.96
69084;SHT31;56185;48.526;9.044;2022-12-18T16:27:50;-4.39;80.86
69084;SHT31;56185;48.526;9.044;2022-12-18T16:30:25;-4.36;80.88
69084;SHT31;56185;48.526;9.044;2022-12-18T16:32:51;-4.29;80.43
69084;SHT31;56185;48.526;9.044;2022-12-18T16:35:16;-4.33;80.36
69084;SHT31;56185;48.526;9.044;2022-12-18T16:37:43;-4.39;80.40
69084;SHT31;56185;48.526;9.044;2022-12-18T16:40:10;-4.39;80.40
69084;SHT31;56185;48.526;9.044;2022-12-18T16:42:38;-4.36;79.92
69084;SHT31;56185;48.526;9.044;2022-12-18T16:45:05;-4.42;80.34
69084;SHT31;56185;48.526;9.044;2022-12-18T16:47:30;-4.53;80.74
69084;SHT31;56185;48.526;9.044;2022-12-18T16:49:56;-4.43;80.94
69084;SHT31;56185;48.526;9.044;2022-12-18T16:52:21;-4.45;81.11
69084;SHT31;56185;48.526;9.044;2022-12-18T16:54:46;-4.49;80.85
69084;SHT31;56185;48.526;9.044;2022-12-18T16:57:14;-4.45;80.67
69084;SHT31;56185;48.526;9.044;2022-12-18T16:59:39;-4.45;80.87
69084;SHT31;56185;48.526;9.044;2022-12-18T17:02:06;-4.45;81.05
69084;SHT31;56185;48.526;9.044;2022-12-18T17:04:35;-4.41;81.00
69084;SHT31;56185;48.526;9.044;2022-12-18T17:07:01;-4.37;80.99
69084;SHT31;56185;48.526;9.044;2022-12-18T17:09:26;-4.36;80.42
69084;SHT31;56185;48.526;9.044;2022-12-18T17:11:52;-4.33;81.05
69084;SHT31;56185;48.526;9.044;2022-12-18T17:14:19;-4.42;81.04
69084;SHT31;56185;48.526;9.044;2022-12-18T17:16:45;-4.28;81.01
69084;SHT31;56185;48.526;9.044;2022-12-18T17:19:11;-4.33;81.28
69084;SHT31;56185;48.526;9.044;2022-12-18T17:21:36;-4.37;81.24
69084;SHT31;56185;48.526;9.044;2022-12-18T17:24:02;-4.36;80.94